Time;durP1;ratioP1;P1;durP2;ratioP2;P2;SDS_P1;SDS_P2;PMS_P1;PMS_P2;Temp;Humidity;BMP_temperature;BMP_pressure;BME280_temperature;BME280_humidity;BME280_pressure;Samples;Min_cycle;Max_cycle;Signal;HPM_P1;HPM_P2
2023/03/30 00:02:21;;;;;;;66.60;4.50;;;16.90;99.90;;;;;;5074413;28;20451;-70
2023/03/30 00:04:48;;;;;;;62.83;3.97;;;16.80;99.90;;;;;;5074336;28;20447;-70
2023/03/30 00:07:15;;;;;;;60.90;4.87;;;16.60;99.90;;;;;;5074108;28;20482;-70
2023/03/30 00:09:42;;;;;;;62.47;3.67;;;16.50;99.90;;;;;;5073768;28;20453;-70
2023/03/30 00:12:12;;;;;;;63.23;4.50;;;16.40;99.90;;;;;;5074381;28;20450;-70
2023/03/30 00:14:41;;;;;;;66.40;4.83;;;16.50;99.90;;;;;;5073999;28;20999;-70
2023/03/30 00:17:08;;;;;;;66.17;4.60;;;16.50;99.90;;;;;;5073930;28;20472;-70
2023/03/30 00:19:36;;;;;;;61.37;4.30;;;16.50;99.90;;;;;;5073762;28;20474;-70
2023/03/30 00:22:03;;;;;;;61.67;4.03;;;16.50;99.90;;;;;;5073946;28;20455;-70
2023/03/30 00:24:30;;;;;;;66.50;4.50;;;16.60;99.90;;;;;;5073944;28;20547;-70
2023/03/30 00:26:57;;;;;;;68.63;4.17;;;16.60;99.90;;;;;;5074030;28;20510;-70
2023/03/30 00:29:25;;;;;;;64.20;4.60;;;16.60;99.90;;;;;;5073747;28;20467;-70
2023/03/30 00:31:52;;;;;;;66.80;4.30;;;16.70;99.90;;;;;;5073921;28;20447;-70
2023/03/30 00:34:19;;;;;;;63.77;4.60;;;16.70;99.90;;;;;;5073729;28;20444;-70
2023/03/30 00:36:47;;;;;;;62.63;4.10;;;16.70;99.90;;;;;;5073553;28;20457;-70
2023/03/30 00:39:17;;;;;;;64.17;4.10;;;16.80;99.90;;;;;;5073229;28;20970;-70
2023/03/30 00:41:45;;;;;;;63.80;4.33;;;16.90;99.90;;;;;;5073666;28;20508;-69
2023/03/30 00:44:45;;;;;;;63.93;4.50;;;16.80;99.90;;;;;;5073633;28;20702;-70
2023/03/30 00:47:14;;;;;;;62.00;4.53;;;16.80;99.90;;;;;;5073143;28;20471;-69
2023/03/30 00:49:42;;;;;;;64.10;4.57;;;16.80;99.90;;;;;;5073260;28;20446;-70
2023/03/30 00:52:09;;;;;;;63.63;4.23;;;16.90;99.90;;;;;;5073503;28;20542;-70
2023/03/30 00:54:38;;;;;;;65.13;4.30;;;17.00;99.90;;;;;;5073385;28;20443;-69
2023/03/30 00:57:06;;;;;;;62.47;4.30;;;17.00;99.90;;;;;;5073179;28;20463;-70
2023/03/30 00:59:33;;;;;;;62.30;4.33;;;17.00;99.90;;;;;;5072755;28;20822;-69
2023/03/30 01:02:00;;;;;;;70.37;5.30;;;16.90;99.90;;;;;;5073032;28;20830;-70
2023/03/30 01:04:28;;;;;;;62.47;4.70;;;16.70;99.90;;;;;;5073246;28;20450;-70
2023/03/30 01:06:56;;;;;;;61.27;4.50;;;16.60;99.90;;;;;;5072880;28;20443;-70
2023/03/30 01:09:25;;;;;;;69.00;5.37;;;16.60;99.90;;;;;;5072987;28;20490;-70
2023/03/30 01:11:52;;;;;;;64.57;4.77;;;16.50;99.90;;;;;;5072967;28;20515;-70
2023/03/30 01:14:19;;;;;;;63.83;4.17;;;16.40;99.90;;;;;;5072893;28;20931;-70
2023/03/30 01:16:56;;;;;;;65.17;4.63;;;16.40;99.90;;;;;;5072682;28;20519;-70
2023/03/30 01:19:59;;;;;;;70.20;5.77;;;16.20;99.90;;;;;;5072718;28;20455;-70
2023/03/30 01:23:00;;;;;;;62.20;4.30;;;16.20;99.90;;;;;;5072824;28;20469;-70
2023/03/30 01:25:50;;;;;;;65.53;4.43;;;16.10;99.90;;;;;;5067649;28;20545;-70
2023/03/30 01:28:35;;;;;;;65.73;4.43;;;16.00;99.90;;;;;;5072521;28;20482;-70
2023/03/30 01:31:27;;;;;;;65.73;5.53;;;16.00;99.90;;;;;;5072809;28;20466;-70
2023/03/30 01:34:19;;;;;;;63.13;5.00;;;15.90;99.90;;;;;;5062435;28;20462;-70
2023/03/30 01:37:35;;;;;;;67.80;4.27;;;15.80;99.90;;;;;;5072304;28;20566;-70
2023/03/30 01:40:08;;;;;;;66.20;4.87;;;15.80;99.90;;;;;;5010384;28;20454;-70
2023/03/30 01:42:41;;;;;;;62.90;4.43;;;15.70;99.90;;;;;;5068382;28;20443;-70
2023/03/30 01:45:14;;;;;;;69.70;4.70;;;15.60;99.90;;;;;;5072320;28;20453;-70
2023/03/30 01:47:48;;;;;;;64.77;4.57;;;15.50;99.90;;;;;;5072279;28;20470;-70
2023/03/30 01:50:21;;;;;;;64.40;5.20;;;15.50;99.90;;;;;;5071871;28;20458;-70
2023/03/30 01:52:54;;;;;;;68.23;4.97;;;15.40;99.90;;;;;;5072165;28;20990;-70
2023/03/30 01:55:27;;;;;;;74.23;5.47;;;15.40;99.90;;;;;;5072213;28;20591;-70
2023/03/30 01:57:59;;;;;;;63.80;5.00;;;15.30;99.90;;;;;;5072470;28;20463;-70
2023/03/30 02:00:28;;;;;;;67.60;5.57;;;15.50;99.90;;;;;;5072007;28;20447;-70
2023/03/30 02:03:00;;;;;;;67.23;4.37;;;15.60;99.90;;;;;;5072191;28;20439;-70
2023/03/30 02:05:30;;;;;;;69.30;5.03;;;15.70;99.90;;;;;;5072244;28;20447;-69
2023/03/30 02:08:01;;;;;;;62.63;4.33;;;15.90;99.90;;;;;;5071756;28;20469;-69
2023/03/30 02:10:34;;;;;;;64.30;4.63;;;15.90;99.90;;;;;;5071964;28;20451;-69
2023/03/30 02:13:02;;;;;;;72.20;5.53;;;15.90;99.90;;;;;;5071620;28;20478;-70
2023/03/30 02:15:34;;;;;;;67.27;5.10;;;16.00;99.90;;;;;;5071925;28;20479;-70
2023/03/30 02:18:01;;;;;;;66.77;5.13;;;16.00;99.90;;;;;;5071750;28;20995;-70
2023/03/30 02:20:29;;;;;;;66.93;4.80;;;16.00;99.90;;;;;;5071498;28;20452;-70
2023/03/30 02:22:57;;;;;;;64.90;4.80;;;16.00;99.90;;;;;;5072116;28;20447;-70
2023/03/30 02:25:23;;;;;;;67.77;4.80;;;16.00;99.90;;;;;;5071959;28;20455;-70
2023/03/30 02:27:52;;;;;;;62.60;4.53;;;15.90;99.90;;;;;;5071814;28;20473;-70
2023/03/30 02:30:19;;;;;;;69.47;5.13;;;15.90;99.90;;;;;;5071388;28;20546;-69
2023/03/30 02:32:49;;;;;;;65.07;4.00;;;16.00;99.90;;;;;;5071633;28;20952;-69
2023/03/30 02:35:47;;;;;;;67.97;4.90;;;16.00;99.90;;;;;;5071535;28;20524;-70
2023/03/30 02:38:32;;;;;;;65.67;4.80;;;16.10;99.90;;;;;;5071663;28;20470;-69
2023/03/30 02:41:08;;;;;;;64.80;4.60;;;16.20;99.90;;;;;;5071767;28;20444;-70
2023/03/30 02:43:45;;;;;;;67.73;4.13;;;16.10;99.90;;;;;;5071485;28;20449;-69
2023/03/30 02:46:25;;;;;;;65.93;4.90;;;16.10;99.90;;;;;;5071835;28;20818;-69
2023/03/30 02:49:00;;;;;;;66.70;4.20;;;16.10;99.90;;;;;;5071105;28;20980;-69
2023/03/30 02:51:40;;;;;;;63.50;4.80;;;16.10;99.90;;;;;;5071564;28;20748;-70
2023/03/30 02:54:16;;;;;;;65.40;4.50;;;16.10;99.90;;;;;;5071481;28;20443;-69
2023/03/30 02:56:48;;;;;;;64.60;4.73;;;16.10;99.90;;;;;;5071510;28;20939;-70
2023/03/30 02:59:21;;;;;;;64.87;4.63;;;16.10;99.90;;;;;;5071247;28;20447;-70
2023/03/30 03:01:53;;;;;;;66.10;4.50;;;16.00;99.90;;;;;;5071558;28;20443;-70
2023/03/30 03:04:22;;;;;;;68.97;5.13;;;15.90;1.00;;;;;;5071357;28;20709;-69
2023/03/30 03:06:51;;;;;;;63.93;4.30;;;15.60;1.00;;;;;;5071532;28;20440;-68
2023/03/30 03:09:19;;;;;;;65.67;5.80;;;15.40;1.00;;;;;;5071123;28;20454;-68
2023/03/30 03:11:46;;;;;;;63.70;5.20;;;15.20;1.00;;;;;;5071457;28;20526;-69
2023/03/30 03:14:13;;;;;;;67.87;4.47;;;15.00;1.00;;;;;;5071454;28;20454;-69
2023/03/30 03:16:41;;;;;;;65.37;4.80;;;14.80;1.00;;;;;;5071158;28;21016;-68
2023/03/30 03:19:08;;;;;;;69.60;6.30;;;14.60;1.00;;;;;;5070952;28;20876;-69
2023/03/30 03:21:35;;;;;;;64.73;5.30;;;14.50;1.00;;;;;;5071596;28;20459;-69
2023/03/30 03:24:02;;;;;;;67.63;5.73;;;14.40;1.00;;;;;;5072120;28;20466;-69
2023/03/30 03:26:29;;;;;;;65.50;5.80;;;14.30;1.00;;;;;;5075358;28;20447;-68
2023/03/30 03:28:56;;;;;;;65.90;5.50;;;14.20;1.00;;;;;;5074618;28;20858;-69
2023/03/30 03:31:25;;;;;;;65.40;6.10;;;14.20;1.00;;;;;;5074732;28;20451;-69
2023/03/30 03:33:54;;;;;;;67.67;6.10;;;14.10;1.00;;;;;;5074955;28;20481;-69
2023/03/30 03:36:22;;;;;;;70.77;5.23;;;14.20;1.00;;;;;;5074885;28;20519;-69
2023/03/30 03:38:49;;;;;;;70.43;6.07;;;14.10;1.00;;;;;;5074455;28;20540;-69
2023/03/30 03:41:16;;;;;;;65.20;5.40;;;14.10;1.00;;;;;;5074807;28;20482;-68
2023/03/30 03:43:43;;;;;;;68.57;5.30;;;13.90;1.00;;;;;;5074746;28;20819;-68
2023/03/30 03:46:10;;;;;;;69.37;5.47;;;13.70;1.00;;;;;;5074587;28;20442;-69
2023/03/30 03:48:38;;;;;;;69.67;5.47;;;13.80;1.00;;;;;;5074389;28;20469;-68
2023/03/30 03:51:07;;;;;;;62.10;5.03;;;13.80;1.00;;;;;;5074757;28;20455;-69
2023/03/30 03:53:34;;;;;;;62.47;5.13;;;13.80;1.00;;;;;;5074503;28;20458;-68
2023/03/30 03:56:02;;;;;;;65.50;5.10;;;13.90;1.00;;;;;;5074235;28;20482;-70
2023/03/30 03:58:29;;;;;;;64.27;5.20;;;14.00;1.00;;;;;;5074319;28;20497;-68
2023/03/30 04:00:58;;;;;;;73.40;6.40;;;13.90;1.00;;;;;;5074797;28;20483;-70
2023/03/30 04:03:25;;;;;;;69.87;6.00;;;13.80;1.00;;;;;;5074377;28;20453;-69
2023/03/30 04:05:52;;;;;;;66.07;5.53;;;13.80;1.00;;;;;;5074489;28;20443;-69
2023/03/30 04:08:20;;;;;;;69.27;6.53;;;13.80;1.00;;;;;;5074062;28;20471;-69
2023/03/30 04:10:47;;;;;;;68.07;5.83;;;13.90;1.00;;;;;;5074053;28;20802;-69
2023/03/30 04:13:14;;;;;;;66.73;6.27;;;14.00;1.00;;;;;;5074200;28;20443;-68
2023/03/30 04:15:41;;;;;;;73.53;5.60;;;14.10;1.00;;;;;;5074266;28;20451;-69
2023/03/30 04:18:08;;;;;;;65.40;5.13;;;14.20;1.00;;;;;;5073869;28;20467;-69
2023/03/30 04:20:35;;;;;;;65.23;5.60;;;14.20;1.00;;;;;;5073930;28;20454;-69
2023/03/30 04:23:01;;;;;;;69.73;6.27;;;14.20;1.00;;;;;;5073927;28;20471;-69
2023/03/30 04:25:30;;;;;;;67.53;5.70;;;14.20;1.00;;;;;;5073739;28;20463;-69
2023/03/30 04:27:57;;;;;;;66.80;5.10;;;14.30;1.00;;;;;;5073963;28;20467;-69
2023/03/30 04:30:24;;;;;;;69.43;6.90;;;14.30;1.00;;;;;;5073789;28;20538;-69
2023/03/30 04:33:01;;;;;;;63.67;5.70;;;14.30;1.00;;;;;;5073718;28;20447;-69
2023/03/30 04:35:29;;;;;;;67.50;5.00;;;14.30;1.00;;;;;;5073379;28;20458;-69
2023/03/30 04:37:56;;;;;;;68.10;6.03;;;14.20;1.00;;;;;;5073498;28;20494;-69
2023/03/30 04:40:24;;;;;;;66.30;5.40;;;14.10;1.00;;;;;;5073475;28;20935;-69
2023/03/30 04:42:52;;;;;;;65.20;5.30;;;14.10;1.00;;;;;;5073861;28;20443;-69
2023/03/30 04:45:19;;;;;;;64.50;4.97;;;14.10;1.00;;;;;;5073516;28;20453;-69
2023/03/30 04:47:46;;;;;;;72.13;8.00;;;14.20;1.00;;;;;;5073299;28;21050;-69
2023/03/30 04:50:13;;;;;;;80.53;12.20;;;14.40;1.00;;;;;;5073232;28;20456;-69
2023/03/30 04:52:40;;;;;;;80.17;14.20;;;14.40;1.00;;;;;;5073331;28;20474;-69
2023/03/30 04:55:08;;;;;;;64.00;6.13;;;14.50;1.00;;;;;;5073619;28;20462;-69
2023/03/30 04:57:35;;;;;;;65.00;5.03;;;14.50;1.00;;;;;;5073465;28;20491;-69
2023/03/30 05:00:07;;;;;;;68.30;6.10;;;14.40;1.00;;;;;;5073093;28;20452;-70
2023/03/30 05:02:35;;;;;;;67.67;5.60;;;14.40;1.00;;;;;;5073116;28;20931;-70
2023/03/30 05:05:01;;;;;;;62.63;4.90;;;14.50;1.00;;;;;;5073035;28;20474;-69
2023/03/30 05:07:28;;;;;;;68.43;5.73;;;14.40;1.00;;;;;;5073019;28;20474;-69
2023/03/30 05:09:55;;;;;;;71.23;6.37;;;14.40;1.00;;;;;;5072739;28;20501;-69
2023/03/30 05:12:22;;;;;;;67.83;5.00;;;14.50;1.00;;;;;;5072973;28;20450;-69
2023/03/30 05:14:49;;;;;;;65.10;6.20;;;14.60;1.00;;;;;;5072816;28;20452;-69
2023/03/30 05:17:17;;;;;;;72.30;5.70;;;14.50;1.00;;;;;;5072664;28;20495;-69
2023/03/30 05:19:45;;;;;;;68.10;6.10;;;14.50;1.00;;;;;;5072318;28;20443;-69
2023/03/30 05:22:12;;;;;;;66.33;5.43;;;14.50;1.00;;;;;;5072955;28;20452;-69
2023/03/30 05:24:39;;;;;;;68.50;6.10;;;14.50;1.00;;;;;;5072688;28;20556;-69
2023/03/30 05:27:05;;;;;;;72.03;6.77;;;14.40;1.00;;;;;;5072741;28;20467;-70
2023/03/30 05:29:32;;;;;;;71.53;6.33;;;14.40;1.00;;;;;;5072674;28;20645;-69
2023/03/30 05:31:59;;;;;;;71.10;5.50;;;14.40;1.00;;;;;;5072422;28;20452;-69
2023/03/30 05:34:27;;;;;;;69.57;5.93;;;14.20;1.00;;;;;;5072493;28;20447;-69
2023/03/30 05:36:54;;;;;;;65.67;6.07;;;14.30;1.00;;;;;;5072361;28;20483;-69
2023/03/30 05:39:22;;;;;;;67.50;5.80;;;14.20;1.00;;;;;;5072170;28;20447;-69
2023/03/30 05:41:48;;;;;;;65.50;5.97;;;14.30;1.00;;;;;;5072473;28;20462;-69
2023/03/30 05:44:15;;;;;;;62.17;5.50;;;14.40;1.00;;;;;;5072312;28;20885;-69
2023/03/30 05:46:42;;;;;;;65.07;5.17;;;14.30;1.00;;;;;;5071378;28;20452;-69
2023/03/30 05:49:09;;;;;;;63.30;5.40;;;14.30;1.00;;;;;;5071858;28;20458;-69
2023/03/30 05:51:37;;;;;;;72.37;6.33;;;14.30;1.00;;;;;;5072353;28;20443;-69
2023/03/30 05:54:04;;;;;;;66.77;5.70;;;14.10;1.00;;;;;;5072285;28;20822;-69
2023/03/30 05:56:31;;;;;;;76.13;5.97;;;13.90;1.00;;;;;;5072129;28;20483;-69
2023/03/30 05:58:58;;;;;;;71.67;6.90;;;13.80;1.00;;;;;;5071584;28;20471;-69
2023/03/30 06:01:26;;;;;;;76.07;7.07;;;13.70;1.00;;;;;;5071890;28;20447;-69
2023/03/30 06:03:52;;;;;;;66.30;6.23;;;13.70;1.00;;;;;;5072140;28;20508;-68
2023/03/30 06:06:19;;;;;;;67.93;6.80;;;13.70;1.00;;;;;;5072047;28;20452;-69
2023/03/30 06:08:48;;;;;;;62.60;5.50;;;13.70;1.00;;;;;;5071578;28;20503;-69
2023/03/30 06:11:15;;;;;;;67.07;5.67;;;13.70;1.00;;;;;;5071963;28;20461;-69
2023/03/30 06:13:42;;;;;;;69.60;7.23;;;13.80;1.00;;;;;;5071890;28;20457;-69
2023/03/30 06:16:10;;;;;;;69.30;6.40;;;13.80;1.00;;;;;;5071648;28;20432;-69
2023/03/30 06:18:36;;;;;;;71.47;6.63;;;13.90;1.00;;;;;;5071349;28;20473;-70
2023/03/30 06:21:05;;;;;;;70.23;7.20;;;14.00;1.00;;;;;;5071908;28;20451;-69
2023/03/30 06:23:32;;;;;;;72.17;6.80;;;14.20;1.00;;;;;;5071877;28;20447;-69
2023/03/30 06:26:01;;;;;;;71.10;6.57;;;14.30;1.00;;;;;;5071818;28;20457;-68
2023/03/30 06:28:28;;;;;;;66.77;7.23;;;14.40;1.00;;;;;;5071257;28;20493;-68
2023/03/30 06:30:55;;;;;;;68.07;7.00;;;14.40;1.00;;;;;;5071925;28;20448;-68
2023/03/30 06:33:21;;;;;;;71.00;6.63;;;14.40;1.00;;;;;;5071857;28;20447;-69
2023/03/30 06:35:49;;;;;;;65.70;5.43;;;14.40;1.00;;;;;;5071637;28;20935;-69
2023/03/30 06:38:17;;;;;;;67.40;6.67;;;14.30;1.00;;;;;;5071565;28;20574;-68
2023/03/30 06:40:44;;;;;;;65.70;6.00;;;14.30;1.00;;;;;;5071418;28;20440;-69
2023/03/30 06:43:17;;;;;;;70.53;6.97;;;14.30;1.00;;;;;;5071433;28;20871;-69
2023/03/30 06:45:49;;;;;;;66.23;5.53;;;14.30;1.00;;;;;;5071375;28;20943;-69
2023/03/30 06:48:18;;;;;;;66.73;7.20;;;14.40;1.00;;;;;;5071391;28;20459;-68
2023/03/30 06:50:45;;;;;;;70.60;6.63;;;14.60;1.00;;;;;;5071217;28;20451;-69
2023/03/30 06:53:12;;;;;;;71.13;7.03;;;14.70;1.00;;;;;;5071509;28;20451;-69
2023/03/30 06:55:39;;;;;;;66.47;6.40;;;14.70;1.00;;;;;;5071341;28;20452;-69
2023/03/30 06:58:06;;;;;;;74.00;6.63;;;14.80;1.00;;;;;;5072293;28;20493;-70
2023/03/30 07:00:34;;;;;;;68.40;6.93;;;14.90;1.00;;;;;;5075284;28;20449;-69
2023/03/30 07:03:02;;;;;;;66.40;6.63;;;15.00;1.00;;;;;;5075539;28;20444;-69
2023/03/30 07:05:30;;;;;;;72.10;7.73;;;15.00;1.00;;;;;;5075296;28;20455;-69
2023/03/30 07:07:57;;;;;;;65.90;5.77;;;15.00;1.00;;;;;;5075150;28;20463;-68
2023/03/30 07:10:24;;;;;;;68.10;5.70;;;15.00;1.00;;;;;;5075175;28;20540;-69
2023/03/30 07:12:51;;;;;;;72.77;6.70;;;15.00;1.00;;;;;;5075437;28;20882;-69
2023/03/30 07:15:18;;;;;;;70.83;7.07;;;14.80;1.00;;;;;;5075297;28;20494;-70
2023/03/30 07:17:46;;;;;;;70.00;7.07;;;14.80;1.00;;;;;;5075041;28;20495;-69
2023/03/30 07:20:14;;;;;;;68.37;6.87;;;14.80;1.00;;;;;;5074773;28;20453;-69
2023/03/30 07:22:41;;;;;;;72.47;6.30;;;14.70;1.00;;;;;;5074870;28;20439;-69
2023/03/30 07:25:09;;;;;;;73.00;5.80;;;14.80;1.00;;;;;;5075226;28;20507;-69
2023/03/30 07:27:36;;;;;;;68.07;5.20;;;14.80;1.00;;;;;;5075261;28;20553;-68
2023/03/30 07:30:04;;;;;;;66.17;6.00;;;14.70;1.00;;;;;;5074747;28;20489;-67
2023/03/30 07:32:31;;;;;;;70.87;6.67;;;14.50;1.00;;;;;;5074848;28;21013;-68
2023/03/30 07:34:59;;;;;;;70.53;6.70;;;14.40;1.00;;;;;;5074896;28;20444;-68
2023/03/30 07:37:27;;;;;;;68.10;6.23;;;14.30;1.00;;;;;;5074607;28;20525;-69
2023/03/30 07:39:54;;;;;;;69.80;6.90;;;14.30;1.00;;;;;;5074689;28;20482;-68
2023/03/30 07:42:21;;;;;;;64.70;6.20;;;14.30;1.00;;;;;;5074694;28;20494;-68
2023/03/30 07:44:48;;;;;;;70.40;7.07;;;14.30;1.00;;;;;;5074928;28;20451;-68
2023/03/30 07:47:15;;;;;;;66.97;5.70;;;14.20;1.00;;;;;;5074648;28;20463;-68
2023/03/30 07:49:42;;;;;;;74.00;7.07;;;14.30;1.00;;;;;;5074227;28;20864;-69
2023/03/30 07:52:10;;;;;;;67.53;6.83;;;14.30;1.00;;;;;;5074873;28;20442;-68
2023/03/30 07:54:37;;;;;;;67.37;5.83;;;14.30;1.00;;;;;;5074780;28;20812;-68
2023/03/30 07:57:04;;;;;;;67.10;6.30;;;14.20;1.00;;;;;;5074630;28;20865;-69
2023/03/30 07:59:32;;;;;;;62.60;5.20;;;14.20;1.00;;;;;;5074151;28;20458;-69
2023/03/30 08:01:59;;;;;;;65.60;6.43;;;14.20;1.00;;;;;;5074444;28;21015;-68
2023/03/30 08:04:26;;;;;;;62.77;5.70;;;14.20;1.00;;;;;;5074246;28;20542;-69
2023/03/30 08:06:53;;;;;;;64.43;6.20;;;14.30;1.00;;;;;;5074466;28;20871;-69
2023/03/30 08:09:21;;;;;;;66.73;6.67;;;14.30;1.00;;;;;;5073351;28;20473;-69
2023/03/30 08:11:48;;;;;;;62.70;5.50;;;14.30;1.00;;;;;;5074112;28;20944;-69
2023/03/30 08:14:15;;;;;;;65.40;7.87;;;14.30;1.00;;;;;;5074136;28;20541;-69
2023/03/30 08:16:42;;;;;;;71.27;9.20;;;14.30;1.00;;;;;;5073977;28;20825;-70
2023/03/30 08:19:09;;;;;;;71.37;11.27;;;14.40;1.00;;;;;;5073703;28;20435;-69
2023/03/30 08:21:35;;;;;;;69.13;8.80;;;14.50;1.00;;;;;;5074236;28;20487;-69
2023/03/30 08:24:02;;;;;;;68.00;6.33;;;14.50;1.00;;;;;;5074020;28;20936;-69
2023/03/30 08:26:30;;;;;;;69.93;6.37;;;14.40;1.00;;;;;;5074029;28;20458;-69
2023/03/30 08:28:58;;;;;;;71.13;6.70;;;14.40;1.00;;;;;;5073539;28;20474;-69
2023/03/30 08:31:24;;;;;;;64.23;6.10;;;14.30;1.00;;;;;;5073697;28;20452;-69
2023/03/30 08:33:51;;;;;;;67.13;7.10;;;14.30;1.00;;;;;;5074271;28;20454;-69
2023/03/30 08:36:19;;;;;;;66.90;7.17;;;14.30;1.00;;;;;;5073999;28;20448;-70
2023/03/30 08:38:46;;;;;;;67.67;7.60;;;14.40;1.00;;;;;;5073508;28;20494;-69
2023/03/30 08:41:38;;;;;;;70.00;7.00;;;14.40;1.00;;;;;;5073628;28;20947;-69
2023/03/30 08:44:14;;;;;;;70.17;7.30;;;14.50;1.00;;;;;;5073881;28;20436;-69
2023/03/30 08:46:44;;;;;;;66.40;11.07;;;14.60;1.00;;;;;;5073472;28;20918;-69
2023/03/30 08:49:16;;;;;;;69.20;7.30;;;14.70;1.00;;;;;;5073229;28;20455;-69
2023/03/30 08:51:45;;;;;;;67.37;6.70;;;14.90;1.00;;;;;;5073666;28;20877;-69
2023/03/30 08:54:16;;;;;;;66.83;6.30;;;14.70;1.00;;;;;;5073371;28;20539;-69
2023/03/30 08:56:54;;;;;;;68.70;6.60;;;14.50;1.00;;;;;;5073472;28;20452;-69
2023/03/30 08:59:33;;;;;;;69.00;7.77;;;14.30;1.00;;;;;;5072949;28;20482;-70
2023/03/30 09:02:06;;;;;;;74.80;9.73;;;14.20;1.00;;;;;;5073282;28;20443;-69
2023/03/30 09:04:45;;;;;;;71.50;7.67;;;14.10;1.00;;;;;;5073234;28;20451;-69
2023/03/30 09:07:17;;;;;;;65.97;8.17;;;14.00;1.00;;;;;;5073355;28;20564;-68
2023/03/30 09:09:46;;;;;;;69.90;8.70;;;13.80;1.00;;;;;;5072857;28;20455;-69
2023/03/30 09:12:22;;;;;;;68.00;7.20;;;13.80;1.00;;;;;;5073018;28;20451;-68
2023/03/30 09:14:55;;;;;;;68.37;6.90;;;13.80;1.00;;;;;;5072983;28;20457;-68
2023/03/30 09:17:27;;;;;;;71.90;7.73;;;13.80;1.00;;;;;;5072778;28;20494;-68
2023/03/30 09:19:57;;;;;;;68.20;6.67;;;13.90;1.00;;;;;;5072547;28;20448;-68
2023/03/30 09:22:31;;;;;;;73.40;7.80;;;13.90;1.00;;;;;;5072958;28;20448;-68
2023/03/30 09:24:58;;;;;;;64.93;8.70;;;13.90;1.00;;;;;;5072660;28;20828;-68
2023/03/30 09:27:34;;;;;;;72.83;11.50;;;13.90;1.00;;;;;;5072479;28;20475;-69
2023/03/30 09:30:09;;;;;;;68.07;6.50;;;14.00;1.00;;;;;;5072579;28;20447;-68
2023/03/30 09:32:42;;;;;;;62.60;6.90;;;13.90;1.00;;;;;;5072729;28;20455;-68
2023/03/30 09:35:14;;;;;;;65.37;6.33;;;14.00;1.00;;;;;;5072666;28;20451;-69
2023/03/30 09:37:41;;;;;;;60.97;5.07;;;14.10;1.00;;;;;;5072501;28;20490;-69
2023/03/30 09:40:22;;;;;;;62.80;5.50;;;14.10;1.00;;;;;;5071982;28;20450;-69
2023/03/30 09:43:01;;;;;;;61.57;5.53;;;14.10;1.00;;;;;;5072671;28;20473;-69
2023/03/30 09:45:31;;;;;;;61.40;5.70;;;14.30;1.00;;;;;;5072460;28;20452;-68
2023/03/30 09:48:04;;;;;;;63.60;4.80;;;14.30;1.00;;;;;;5072103;28;20463;-68
2023/03/30 09:50:31;;;;;;;63.53;5.37;;;14.30;1.00;;;;;;5071979;28;20457;-69
2023/03/30 09:53:00;;;;;;;62.90;6.27;;;14.40;1.00;;;;;;5072471;28;20808;-69
2023/03/30 09:55:30;;;;;;;66.17;5.90;;;14.40;1.00;;;;;;5072260;28;20807;-68
2023/03/30 09:58:13;;;;;;;63.37;5.77;;;14.40;1.00;;;;;;5071860;28;20483;-69
2023/03/30 10:00:40;;;;;;;65.67;6.67;;;14.30;1.00;;;;;;5071941;28;20465;-69
2023/03/30 10:03:08;;;;;;;66.47;6.00;;;14.20;1.00;;;;;;5071845;28;21013;-68
2023/03/30 10:05:36;;;;;;;72.17;13.20;;;14.20;1.00;;;;;;5072167;28;20508;-68
2023/03/30 10:08:05;;;;;;;69.73;6.70;;;14.40;1.00;;;;;;5071811;28;21098;-69
2023/03/30 10:10:35;;;;;;;60.80;5.23;;;14.50;1.00;;;;;;5071719;28;20451;-68
2023/03/30 10:13:05;;;;;;;63.37;5.13;;;14.40;1.00;;;;;;5071904;28;20470;-71
2023/03/30 10:15:38;;;;;;;62.53;5.17;;;14.30;1.00;;;;;;5071788;28;20447;-69
2023/03/30 10:18:23;;;;;;;60.50;5.47;;;14.20;1.00;;;;;;5071856;28;20487;-69
2023/03/30 10:20:52;;;;;;;64.53;4.80;;;14.10;1.00;;;;;;5071730;28;20447;-69
2023/03/30 10:23:23;;;;;;;60.87;5.03;;;14.30;1.00;;;;;;5071726;28;20539;-69
2023/03/30 10:25:50;;;;;;;62.20;5.43;;;14.40;1.00;;;;;;5071550;28;20470;-68
2023/03/30 10:28:20;;;;;;;60.73;5.03;;;14.60;1.00;;;;;;5071533;28;20979;-68
2023/03/30 10:30:54;;;;;;;61.27;4.83;;;14.90;1.00;;;;;;5071466;28;20451;-69
2023/03/30 10:33:21;;;;;;;61.87;4.90;;;15.20;1.00;;;;;;5071258;28;20448;-69
2023/03/30 10:35:52;;;;;;;61.40;5.00;;;15.30;1.00;;;;;;5072085;28;20451;-68
2023/03/30 10:38:20;;;;;;;64.70;5.23;;;15.50;1.00;;;;;;5071302;28;20581;-69
2023/03/30 10:40:48;;;;;;;61.53;4.50;;;15.50;1.00;;;;;;5071208;28;20451;-69
2023/03/30 10:43:18;;;;;;;60.90;4.57;;;15.30;1.00;;;;;;5071699;28;20454;-69
2023/03/30 10:45:48;;;;;;;68.97;4.70;;;15.30;1.00;;;;;;5071962;28;20503;-69
2023/03/30 10:48:44;;;;;;;63.87;4.47;;;15.30;1.00;;;;;;5071935;28;20470;-69
2023/03/30 10:51:17;;;;;;;59.97;4.77;;;15.30;1.00;;;;;;5071416;28;20483;-69
2023/03/30 10:53:50;;;;;;;60.07;4.90;;;15.40;1.00;;;;;;5071671;28;20450;-69
2023/03/30 10:56:26;;;;;;;61.33;5.17;;;15.30;1.00;;;;;;5071643;28;20465;-69
2023/03/30 10:59:15;;;;;;;63.13;5.20;;;15.30;1.00;;;;;;5071050;28;20497;-69
2023/03/30 11:01:55;;;;;;;62.67;5.93;;;15.20;1.00;;;;;;5071515;28;20599;-69
2023/03/30 11:04:30;;;;;;;62.33;5.40;;;15.10;1.00;;;;;;5071594;28;20443;-69
2023/03/30 11:06:59;;;;;;;63.10;5.00;;;14.90;1.00;;;;;;5071456;28;20439;-69
2023/03/30 11:09:31;;;;;;;62.57;5.53;;;14.70;1.00;;;;;;5071070;28;20443;-69
2023/03/30 11:12:01;;;;;;;63.20;6.23;;;14.90;1.00;;;;;;5071798;28;20443;-69
2023/03/30 11:14:46;;;;;;;63.77;8.63;;;15.10;1.00;;;;;;5071424;28;20455;-69
2023/03/30 11:17:19;;;;;;;60.70;5.17;;;15.30;1.00;;;;;;5071346;28;20546;-69
2023/03/30 11:19:53;;;;;;;59.63;4.80;;;15.40;1.00;;;;;;5070995;28;20495;-70
2023/03/30 11:22:28;;;;;;;59.73;4.43;;;15.60;1.00;;;;;;5071153;28;20534;-69
2023/03/30 11:24:55;;;;;;;63.13;5.03;;;15.90;1.00;;;;;;5071162;28;20455;-70
2023/03/30 11:27:29;;;;;;;62.67;5.33;;;16.30;1.00;;;;;;5071204;28;20474;-69
2023/03/30 11:30:02;;;;;;;61.37;5.60;;;17.00;1.00;;;;;;5071017;28;20439;-69
2023/03/30 11:32:35;;;;;;;64.40;5.53;;;17.40;1.00;;;;;;5071117;28;20471;-68
2023/03/30 11:35:10;;;;;;;64.00;4.87;;;17.50;1.00;;;;;;5071319;28;20438;-69
2023/03/30 11:37:45;;;;;;;60.37;4.27;;;18.00;1.00;;;;;;5071113;28;20463;-70
2023/03/30 11:40:17;;;;;;;60.20;3.90;;;18.10;1.00;;;;;;5070817;28;20454;-69
2023/03/30 11:42:46;;;;;;;61.20;5.10;;;18.50;1.00;;;;;;5070997;28;20449;-69
2023/03/30 11:45:23;;;;;;;60.67;4.60;;;18.50;1.00;;;;;;5072116;28;20451;-69
2023/03/30 11:48:03;;;;;;;63.17;4.97;;;18.10;1.00;;;;;;5074323;28;20998;-69
2023/03/30 11:50:56;;;;;;;60.67;4.50;;;17.80;1.00;;;;;;5074184;28;21020;-69
2023/03/30 11:53:31;;;;;;;59.90;4.27;;;17.70;1.00;;;;;;5074791;28;20439;-70
2023/03/30 11:56:06;;;;;;;62.67;5.30;;;17.60;1.00;;;;;;5073586;28;20451;-70
2023/03/30 11:58:36;;;;;;;64.95;5.00;;;17.70;1.00;;;;;;5068797;28;20566;-70
2023/03/30 12:01:15;;;;;;;63.53;4.60;;;17.80;1.00;;;;;;5053827;28;20671;-69
2023/03/30 12:03:43;;;;;;;65.97;5.10;;;17.70;1.00;;;;;;5054388;28;20452;-70
2023/03/30 12:06:28;;;;;;;60.07;4.70;;;17.70;1.00;;;;;;5054130;28;20547;-69
2023/03/30 12:09:22;;;;;;;60.40;5.10;;;17.40;1.00;;;;;;5054196;28;20526;-70
2023/03/30 12:11:53;;;;;;;61.40;4.73;;;17.20;1.00;;;;;;5052560;28;20452;-69
2023/03/30 12:14:39;;;;;;;64.07;4.67;;;17.00;1.00;;;;;;5054121;28;20452;-70
2023/03/30 12:17:15;;;;;;;63.57;5.13;;;16.90;1.00;;;;;;5054214;28;20468;-70
2023/03/30 12:19:49;;;;;;;62.67;4.67;;;16.70;1.00;;;;;;5053712;28;20490;-70
2023/03/30 12:22:24;;;;;;;68.97;5.30;;;16.80;1.00;;;;;;5054073;28;20892;-70
2023/03/30 12:24:54;;;;;;;61.20;5.13;;;16.90;1.00;;;;;;5053760;28;20466;-70
2023/03/30 12:27:21;;;;;;;60.93;4.70;;;16.90;1.00;;;;;;5054010;28;20891;-70
2023/03/30 12:29:51;;;;;;;62.53;4.80;;;16.80;1.00;;;;;;5053585;28;20445;-70
2023/03/30 12:32:26;;;;;;;61.87;4.27;;;16.60;1.00;;;;;;5053812;28;20502;-70
2023/03/30 12:34:53;;;;;;;62.47;4.93;;;16.90;1.00;;;;;;5053870;28;20824;-70
2023/03/30 12:37:27;;;;;;;61.17;4.60;;;17.50;1.00;;;;;;5053450;28;20504;-69
2023/03/30 12:39:57;;;;;;;61.50;3.87;;;19.40;1.00;;;;;;5053255;28;20681;-69
2023/03/30 12:42:33;;;;;;;59.70;4.50;;;20.20;1.00;;;;;;5053502;28;20505;-71
2023/03/30 12:45:30;;;;;;;61.40;4.80;;;22.00;1.00;;;;;;5053656;28;20455;-71
2023/03/30 12:48:19;;;;;;;62.27;4.97;;;23.60;1.00;;;;;;5051063;28;20483;-69
2023/03/30 12:50:58;;;;;;;61.50;4.60;;;21.80;99.90;;;;;;5053278;28;20518;-69
2023/03/30 12:53:53;;;;;;;69.43;5.30;;;20.30;1.00;;;;;;5053352;28;20455;-70
2023/03/30 12:56:30;;;;;;;65.40;5.40;;;21.00;1.00;;;;;;5053175;28;20471;-69
2023/03/30 12:59:18;;;;;;;62.00;4.93;;;21.30;99.90;;;;;;5052905;28;20499;-70
2023/03/30 13:02:18;;;;;;;63.60;4.57;;;22.40;99.90;;;;;;5044252;28;20983;-70
2023/03/30 13:04:47;;;;;;;60.47;4.60;;;24.90;99.90;;;;;;5051026;28;20945;-70